createdAt,value
2017-11-23T00:01:31.760Z,84.40
2017-11-23T00:03:59.369Z,84.40
2017-11-23T00:06:27.699Z,85.10
2017-11-23T00:08:55.261Z,85.10
2017-11-23T00:11:22.865Z,84.90
2017-11-23T00:13:51.195Z,85.30
2017-11-23T00:16:18.790Z,84.70
2017-11-23T00:18:46.411Z,84.50
2017-11-23T00:21:13.977Z,84.10
2017-11-23T00:23:41.540Z,84.20
2017-11-23T00:26:09.148Z,83.90
2017-11-23T00:28:37.479Z,84.20
2017-11-23T00:31:05.103Z,84.10
2017-11-23T00:33:32.666Z,84.20
2017-11-23T00:36:00.993Z,84.00
2017-11-23T00:38:28.617Z,84.00
2017-11-23T00:40:56.202Z,82.90
2017-11-23T00:43:23.784Z,83.10
2017-11-23T00:45:51.424Z,82.90
2017-11-23T00:48:18.998Z,83.20
2017-11-23T00:50:46.601Z,83.50
2017-11-23T00:53:14.965Z,83.30
2017-11-23T00:55:43.349Z,83.50
2017-11-23T00:58:11.691Z,83.10
2017-11-23T01:00:39.291Z,83.00
2017-11-23T01:03:07.673Z,83.30
2017-11-23T01:05:36.046Z,83.60
2017-11-23T01:08:03.629Z,83.60
2017-11-23T01:10:31.229Z,83.30
2017-11-23T01:12:58.791Z,83.00
2017-11-23T01:15:26.418Z,83.00
2017-11-23T01:17:53.996Z,83.50
2017-11-23T01:20:21.560Z,82.90
2017-11-23T01:22:49.171Z,82.40
2017-11-23T01:25:16.776Z,83.40
2017-11-23T01:27:44.332Z,83.60
2017-11-23T01:30:11.970Z,83.50
2017-11-23T01:32:40.300Z,83.50
2017-11-23T01:35:07.861Z,83.50
2017-11-23T01:37:35.456Z,83.00
2017-11-23T01:40:03.039Z,83.10
2017-11-23T01:42:30.644Z,83.40
2017-11-23T01:44:58.203Z,83.20
2017-11-23T01:47:25.829Z,82.80
2017-11-23T01:49:53.432Z,83.20
2017-11-23T01:52:21.000Z,83.50
2017-11-23T01:54:48.619Z,83.30
2017-11-23T01:57:16.184Z,83.50
2017-11-23T01:59:43.780Z,83.30
2017-11-23T02:02:11.376Z,82.90
2017-11-23T02:04:39.752Z,83.10
2017-11-23T02:07:08.075Z,83.20
2017-11-23T02:09:35.633Z,83.20
2017-11-23T02:12:03.254Z,83.60
2017-11-23T02:14:31.583Z,83.70
2017-11-23T02:16:59.174Z,83.60
2017-11-23T02:19:26.812Z,84.30
2017-11-23T02:21:54.451Z,83.90
2017-11-23T02:24:22.024Z,83.40
2017-11-23T02:26:49.610Z,83.60
2017-11-23T02:29:17.214Z,83.60
2017-11-23T02:31:45.535Z,83.40
2017-11-23T02:34:13.144Z,83.40
2017-11-23T02:36:41.516Z,83.50
2017-11-23T02:39:09.875Z,83.90
2017-11-23T02:41:37.432Z,83.80
2017-11-23T02:44:05.037Z,84.30
2017-11-23T02:46:32.661Z,84.50
2017-11-23T02:49:01.004Z,84.90
2017-11-23T02:51:28.572Z,84.90
2017-11-23T02:53:56.193Z,84.10
2017-11-23T02:56:24.516Z,84.40
2017-11-23T02:58:52.136Z,84.30
2017-11-23T03:01:19.735Z,83.80
2017-11-23T03:03:47.299Z,83.20
2017-11-23T03:06:14.911Z,83.40
2017-11-23T03:08:43.317Z,83.20
2017-11-23T03:11:10.920Z,83.10
2017-11-23T03:13:38.479Z,83.50
2017-11-23T03:16:06.079Z,84.50
2017-11-23T03:18:34.418Z,84.90
2017-11-23T03:21:02.027Z,84.30
2017-11-23T03:23:29.628Z,83.60
2017-11-23T03:25:57.203Z,83.60
2017-11-23T03:28:24.820Z,84.10
2017-11-23T03:30:52.405Z,83.90
2017-11-23T03:33:20.027Z,83.50
2017-11-23T03:35:47.592Z,83.60
2017-11-23T03:38:15.154Z,84.00
2017-11-23T03:40:42.771Z,83.80
2017-11-23T03:43:10.372Z,83.80
2017-11-23T03:45:37.992Z,84.40
2017-11-23T03:48:05.625Z,84.50
2017-11-23T03:50:33.192Z,84.70
2017-11-23T03:53:00.793Z,84.60
2017-11-23T03:55:29.167Z,83.70
2017-11-23T03:57:56.731Z,83.60
2017-11-23T04:00:25.109Z,83.40
2017-11-23T04:02:52.671Z,83.40
2017-11-23T04:05:21.004Z,83.30
2017-11-23T04:07:48.612Z,83.20
2017-11-23T04:10:16.955Z,83.60
2017-11-23T04:12:44.515Z,83.60
2017-11-23T04:15:12.120Z,83.50
2017-11-23T04:17:40.445Z,83.50
2017-11-23T04:20:08.004Z,83.50
2017-11-23T04:22:35.630Z,83.80
2017-11-23T04:25:03.213Z,82.90
2017-11-23T04:27:30.782Z,83.20
2017-11-23T04:29:58.401Z,83.50
2017-11-23T04:32:26.724Z,83.80
2017-11-23T04:34:54.292Z,83.70
2017-11-23T04:37:21.908Z,83.60
2017-11-23T04:39:50.299Z,84.10
2017-11-23T04:42:17.867Z,84.00
2017-11-23T04:44:45.467Z,83.70
2017-11-23T04:47:13.069Z,84.00
2017-11-23T04:49:41.400Z,83.00
2017-11-23T04:52:09.037Z,83.00
2017-11-23T04:54:36.631Z,83.10
2017-11-23T04:57:04.227Z,83.90
2017-11-23T04:59:32.688Z,84.20
2017-11-23T05:02:00.334Z,84.20
2017-11-23T05:04:27.919Z,83.70
2017-11-23T05:06:55.523Z,84.00
2017-11-23T05:09:23.090Z,84.30
2017-11-23T05:11:50.654Z,84.20
2017-11-23T05:14:18.249Z,83.70
2017-11-23T05:16:45.844Z,83.70
2017-11-23T05:19:14.208Z,83.90
2017-11-23T05:21:42.534Z,84.10
2017-11-23T05:24:10.127Z,84.10
2017-11-23T05:26:37.693Z,84.20
2017-11-23T05:29:05.303Z,84.10
2017-11-23T05:31:32.873Z,84.20
2017-11-23T05:34:00.491Z,84.00
2017-11-23T05:36:28.832Z,83.20
2017-11-23T05:38:56.440Z,83.20
2017-11-23T05:41:24.782Z,83.50
2017-11-23T05:43:52.376Z,83.50
2017-11-23T05:46:20.755Z,83.70
2017-11-23T05:48:49.078Z,83.90
2017-11-23T05:51:17.439Z,83.70
2017-11-23T05:53:44.997Z,83.60
2017-11-23T05:56:12.611Z,83.30
2017-11-23T05:58:40.242Z,84.10
2017-11-23T06:01:07.805Z,83.40
2017-11-23T06:03:35.404Z,83.70
2017-11-23T06:06:03.039Z,83.80
2017-11-23T06:08:30.619Z,83.60
2017-11-23T06:10:58.212Z,83.50
2017-11-23T06:13:26.618Z,83.30
2017-11-23T06:15:54.187Z,83.30
2017-11-23T06:18:21.750Z,83.10
2017-11-23T06:20:49.349Z,82.80
2017-11-23T06:23:17.693Z,83.20
2017-11-23T06:25:45.289Z,83.20
2017-11-23T06:28:12.850Z,83.00
2017-11-23T06:30:40.469Z,83.70
2017-11-23T06:33:08.082Z,83.40
2017-11-23T06:35:36.452Z,83.40
2017-11-23T06:38:04.043Z,83.40
2017-11-23T06:40:31.659Z,83.00
2017-11-23T06:42:59.276Z,83.30
2017-11-23T06:45:26.888Z,83.30
2017-11-23T06:47:54.461Z,83.30
2017-11-23T06:50:22.800Z,82.80
2017-11-23T06:52:50.411Z,82.90
2017-11-23T06:55:18.737Z,82.80
2017-11-23T06:57:46.291Z,82.80
2017-11-23T07:00:13.900Z,82.90
2017-11-23T07:02:41.501Z,83.30
2017-11-23T07:05:09.059Z,83.50
2017-11-23T07:07:36.643Z,83.50
2017-11-23T07:10:04.232Z,83.50
2017-11-23T07:12:31.798Z,83.60
2017-11-23T07:14:59.450Z,83.70
2017-11-23T07:17:27.394Z,84.20
2017-11-23T07:19:55.033Z,83.50
2017-11-23T07:22:22.639Z,83.60
2017-11-23T07:24:50.224Z,83.60
2017-11-23T07:27:18.583Z,83.50
2017-11-23T07:29:46.171Z,83.40
2017-11-23T07:32:14.656Z,83.00
2017-11-23T07:34:42.979Z,82.60
2017-11-23T07:37:10.536Z,82.60
2017-11-23T07:39:38.148Z,82.60
2017-11-23T07:42:06.563Z,82.80
2017-11-23T07:44:34.141Z,82.80
2017-11-23T07:47:01.951Z,82.80
2017-11-23T07:49:31.221Z,82.50
2017-11-23T07:51:58.844Z,82.50
2017-11-23T07:54:26.412Z,82.60
2017-11-23T07:56:54.249Z,82.60
2017-11-23T07:59:21.855Z,82.00
2017-11-23T08:01:49.466Z,82.30
2017-11-23T08:04:17.799Z,82.50
2017-11-23T08:06:45.369Z,82.50
2017-11-23T08:09:12.989Z,82.60
2017-11-23T08:11:40.615Z,82.30
2017-11-23T08:14:09.004Z,82.50
2017-11-23T08:16:37.397Z,82.00
2017-11-23T08:19:05.734Z,81.90
2017-11-23T08:21:33.339Z,81.90
2017-11-23T08:24:01.907Z,82.10
2017-11-23T08:26:30.296Z,81.20
2017-11-23T08:28:58.687Z,80.80
2017-11-23T08:31:26.252Z,80.80
2017-11-23T08:33:53.863Z,80.10
2017-11-23T08:36:22.302Z,80.60
2017-11-23T08:38:49.874Z,80.50
2017-11-23T08:41:17.441Z,80.00
2017-11-23T08:43:45.057Z,79.20
2017-11-23T08:46:12.695Z,79.30
2017-11-23T08:48:40.295Z,79.00
2017-11-23T08:51:07.883Z,78.90
2017-11-23T08:53:36.308Z,76.70
2017-11-23T08:56:03.871Z,76.30
2017-11-23T08:58:32.284Z,70.80
2017-11-23T09:01:02.656Z,70.70
2017-11-23T09:03:30.219Z,68.30
2017-11-23T09:05:57.826Z,66.50
2017-11-23T09:08:25.387Z,64.60
2017-11-23T09:10:52.976Z,65.00
2017-11-23T09:13:20.593Z,64.10
2017-11-23T09:15:48.983Z,62.20
2017-11-23T09:18:16.553Z,62.10
2017-11-23T09:20:44.182Z,60.40
2017-11-23T09:23:11.755Z,60.30
2017-11-23T09:25:40.081Z,61.60
2017-11-23T09:28:07.771Z,61.60
2017-11-23T09:30:35.387Z,61.00
2017-11-23T09:33:02.969Z,61.90
2017-11-23T09:35:31.335Z,59.70
2017-11-23T09:37:58.957Z,59.70
2017-11-23T09:40:27.349Z,58.50
2017-11-23T09:42:55.694Z,58.10
2017-11-23T09:45:23.329Z,58.10
2017-11-23T09:47:50.924Z,57.70
2017-11-23T09:50:18.555Z,57.90
2017-11-23T09:52:47.030Z,58.00
2017-11-23T09:55:15.565Z,57.60
2017-11-23T09:57:43.929Z,57.80
2017-11-23T10:00:11.489Z,57.80
2017-11-23T10:02:39.933Z,58.00
2017-11-23T10:05:07.526Z,57.90
2017-11-23T10:07:35.086Z,57.70
2017-11-23T10:10:02.735Z,58.10
2017-11-23T10:12:30.295Z,57.80
2017-11-23T10:14:57.855Z,58.40
2017-11-23T10:17:25.460Z,58.10
2017-11-23T10:19:53.821Z,57.40
2017-11-23T10:22:22.196Z,57.30
2017-11-23T10:24:49.761Z,57.20
2017-11-23T10:27:17.364Z,56.70
2017-11-23T10:29:44.941Z,56.50
2017-11-23T10:32:12.552Z,56.00
2017-11-23T10:34:40.904Z,56.80
2017-11-23T10:37:10.490Z,56.80
2017-11-23T10:39:38.090Z,56.50
2017-11-23T10:42:06.427Z,56.60
2017-11-23T10:44:34.036Z,56.60
2017-11-23T10:47:02.369Z,57.00
2017-11-23T10:49:29.965Z,57.00
2017-11-23T10:51:57.564Z,57.20
2017-11-23T10:54:25.172Z,57.80
2017-11-23T10:56:53.245Z,58.10
2017-11-23T10:59:20.803Z,58.10
2017-11-23T11:01:48.474Z,58.30
2017-11-23T11:04:16.087Z,58.40
2017-11-23T11:06:43.708Z,58.20
2017-11-23T11:09:11.355Z,57.60
2017-11-23T11:11:38.963Z,56.80
2017-11-23T11:14:06.827Z,56.80
2017-11-23T11:16:34.454Z,55.60
2017-11-23T11:19:02.182Z,56.00
2017-11-23T11:21:30.889Z,53.60
2017-11-23T11:23:58.500Z,53.60
2017-11-23T11:26:26.120Z,52.80
2017-11-23T11:28:53.722Z,52.70
2017-11-23T11:31:21.341Z,52.30
2017-11-23T11:33:48.929Z,51.50
2017-11-23T11:36:17.307Z,47.10
2017-11-23T11:38:45.699Z,47.00
2017-11-23T11:41:13.286Z,46.90
2017-11-23T11:43:40.986Z,46.70
2017-11-23T11:46:20.601Z,46.10
2017-11-23T11:48:48.502Z,46.70
2017-11-23T11:51:16.160Z,48.30
2017-11-23T11:53:43.901Z,50.30
2017-11-23T11:56:11.466Z,52.80
2017-11-23T11:58:39.044Z,54.10
2017-11-23T12:01:06.824Z,56.10
2017-11-23T12:03:35.195Z,55.90
2017-11-23T12:06:02.859Z,55.30
2017-11-23T12:08:30.577Z,55.60
2017-11-23T12:10:58.198Z,56.30
2017-11-23T12:13:25.799Z,57.80
2017-11-23T12:16:05.173Z,59.20
2017-11-23T12:18:34.285Z,59.60
2017-11-23T12:21:14.811Z,58.60
2017-11-23T12:23:44.991Z,58.50
2017-11-23T12:26:13.362Z,61.40
2017-11-23T12:31:38.649Z,61.00
2017-11-23T12:34:06.341Z,61.20
2017-11-23T12:36:34.440Z,60.70
2017-11-23T12:39:02.895Z,60.50
2017-11-23T12:41:30.529Z,60.40
2017-11-23T12:43:58.888Z,59.40
2017-11-23T12:46:26.465Z,59.30
2017-11-23T12:48:54.159Z,59.20
2017-11-23T12:51:21.755Z,58.10
2017-11-23T12:53:49.380Z,59.40
2017-11-23T12:56:17.028Z,60.30
2017-11-23T12:58:45.413Z,59.30
2017-11-23T13:01:13.776Z,59.30
2017-11-23T13:03:42.167Z,59.40
2017-11-23T13:06:10.581Z,59.00
2017-11-23T13:08:38.160Z,59.00
2017-11-23T13:11:05.755Z,59.00
2017-11-23T13:13:34.167Z,59.50
2017-11-23T13:16:01.773Z,59.30
2017-11-23T13:18:29.410Z,58.40
2017-11-23T13:20:57.049Z,58.00
2017-11-23T13:23:24.661Z,58.40
2017-11-23T13:25:52.418Z,59.50
2017-11-23T13:28:20.014Z,57.70
2017-11-23T13:30:47.664Z,57.70
2017-11-23T13:33:15.306Z,57.70
2017-11-23T13:35:42.905Z,58.30
2017-11-23T13:38:10.495Z,58.30
2017-11-23T13:40:38.111Z,58.80
2017-11-23T13:43:05.739Z,57.60
2017-11-23T13:45:33.365Z,57.80
2017-11-23T13:48:01.299Z,57.60
2017-11-23T13:50:28.962Z,57.40
2017-11-23T13:52:56.546Z,57.40
2017-11-23T13:55:26.953Z,59.10
2017-11-23T13:57:54.597Z,59.70
2017-11-23T14:00:22.212Z,59.90
2017-11-23T14:02:49.912Z,60.40
2017-11-23T14:05:17.596Z,61.10
2017-11-23T14:07:45.350Z,60.30
2017-11-23T14:10:13.082Z,58.30
2017-11-23T14:12:40.689Z,58.30
2017-11-23T14:15:08.494Z,57.90
2017-11-23T14:17:36.120Z,59.10
2017-11-23T14:20:03.711Z,59.20
2017-11-23T14:22:31.327Z,57.50
2017-11-23T14:24:59.082Z,58.10
2017-11-23T14:27:26.738Z,59.60
2017-11-23T14:29:54.339Z,60.00
2017-11-23T14:32:21.976Z,60.60
2017-11-23T14:34:49.640Z,62.40
2017-11-23T14:37:17.231Z,62.60
2017-11-23T14:39:45.122Z,62.50
2017-11-23T14:42:12.769Z,62.90
2017-11-23T14:44:41.186Z,63.60
2017-11-23T14:47:08.818Z,63.50
2017-11-23T14:49:36.497Z,63.10
2017-11-23T14:52:04.156Z,63.40
2017-11-23T14:54:31.775Z,64.70
2017-11-23T14:56:59.383Z,66.20
2017-11-23T14:59:28.719Z,65.40
2017-11-23T15:01:58.372Z,65.50
2017-11-23T15:04:28.260Z,63.60
2017-11-23T15:06:56.218Z,63.50
2017-11-23T15:09:24.478Z,62.70
2017-11-23T15:11:53.086Z,61.10
2017-11-23T15:14:21.669Z,63.00
2017-11-23T15:16:50.622Z,62.90
2017-11-23T15:19:19.506Z,62.00
2017-11-23T15:21:47.131Z,62.00
2017-11-23T15:24:14.740Z,62.40
2017-11-23T15:26:42.329Z,62.20
2017-11-23T15:29:10.026Z,61.30
2017-11-23T15:31:37.659Z,63.10
2017-11-23T15:34:05.253Z,60.80
2017-11-23T15:36:32.998Z,60.80
2017-11-23T15:39:00.640Z,60.30
2017-11-23T15:41:28.245Z,60.40
2017-11-23T15:43:56.620Z,61.10
2017-11-23T15:46:24.249Z,61.00
2017-11-23T15:48:51.955Z,61.70
2017-11-23T15:51:20.333Z,61.60
2017-11-23T15:53:48.781Z,62.10
2017-11-23T15:56:16.354Z,61.90
2017-11-23T15:58:43.982Z,60.70
2017-11-23T16:01:11.606Z,61.00
2017-11-23T16:03:40.007Z,60.90
2017-11-23T16:06:08.945Z,60.80
2017-11-23T16:08:50.304Z,61.80
2017-11-23T16:11:19.987Z,61.40
2017-11-23T16:13:47.638Z,61.30
2017-11-23T16:16:15.995Z,61.50
2017-11-23T16:18:43.637Z,61.50
2017-11-23T16:21:11.237Z,60.10
2017-11-23T16:23:38.863Z,59.50
2017-11-23T16:26:06.517Z,59.50
2017-11-23T16:28:34.599Z,60.20
2017-11-23T16:31:02.275Z,59.10
2017-11-23T16:33:29.891Z,58.80
2017-11-23T16:35:58.251Z,58.20
2017-11-23T16:38:27.141Z,57.90
2017-11-23T16:40:55.240Z,57.90
2017-11-23T16:43:42.027Z,58.50
2017-11-23T16:46:29.456Z,57.70
2017-11-23T16:49:04.556Z,57.70
2017-11-23T16:51:50.980Z,57.50
2017-11-23T16:54:25.326Z,57.30
2017-11-23T16:56:58.585Z,57.20
2017-11-23T16:59:45.546Z,57.70
2017-11-23T17:02:19.241Z,57.40
2017-11-23T17:04:52.494Z,56.90
2017-11-23T17:07:21.236Z,56.90
2017-11-23T17:09:54.412Z,58.10
2017-11-23T17:12:29.357Z,57.50
2017-11-23T17:15:16.470Z,57.30
2017-11-23T17:17:50.601Z,58.00
2017-11-23T17:20:21.221Z,58.40
2017-11-23T17:22:50.668Z,58.60
2017-11-23T17:25:21.068Z,58.00
2017-11-23T17:27:50.523Z,58.20
2017-11-23T17:30:21.060Z,58.70
2017-11-23T17:32:52.810Z,58.10
2017-11-23T17:35:23.341Z,58.20
2017-11-23T17:37:53.584Z,58.20
2017-11-23T17:40:24.061Z,58.20
2017-11-23T17:42:54.720Z,58.30
2017-11-23T17:45:24.304Z,58.70
2017-11-23T17:47:55.081Z,58.80
2017-11-23T17:50:24.724Z,58.70
2017-11-23T17:52:54.261Z,58.60
2017-11-23T17:55:24.334Z,59.30
2017-11-23T17:57:54.977Z,59.40
2017-11-23T18:00:25.906Z,59.40
2017-11-23T18:02:56.544Z,58.80
2017-11-23T18:05:26.103Z,59.20
2017-11-23T18:07:54.659Z,59.00
2017-11-23T18:10:23.428Z,59.70
2017-11-23T18:12:53.466Z,59.50
2017-11-23T18:15:24.667Z,59.40
2017-11-23T18:17:54.004Z,59.50
2017-11-23T18:20:25.897Z,59.50
2017-11-23T18:22:55.460Z,59.70
2017-11-23T18:25:24.821Z,59.90
2017-11-23T18:27:55.284Z,60.10
2017-11-23T18:30:24.564Z,60.40
2017-11-23T18:32:54.436Z,60.10
2017-11-23T18:35:24.092Z,59.70
2017-11-23T18:37:55.045Z,59.70
2017-11-23T18:40:24.657Z,59.90
2017-11-23T18:42:53.972Z,60.20
2017-11-23T18:45:25.680Z,60.30
2017-11-23T18:47:55.101Z,60.60
2017-11-23T18:50:25.691Z,60.30
2017-11-23T18:52:55.534Z,60.20
2017-11-23T18:55:25.082Z,60.40
2017-11-23T18:57:54.380Z,60.50
2017-11-23T19:00:23.899Z,60.60
2017-11-23T19:02:53.326Z,60.50
2017-11-23T19:05:22.773Z,60.20
2017-11-23T19:07:53.147Z,59.80
2017-11-23T19:10:22.382Z,59.70
2017-11-23T19:12:52.547Z,60.00
2017-11-23T19:15:23.136Z,60.40
2017-11-23T19:17:52.548Z,60.40
2017-11-23T19:20:21.852Z,60.20
2017-11-23T19:22:51.186Z,59.90
2017-11-23T19:25:20.774Z,60.40
2017-11-23T19:27:50.792Z,59.10
2017-11-23T19:30:21.035Z,59.60
2017-11-23T19:32:51.192Z,59.60
2017-11-23T19:35:22.554Z,59.80
2017-11-23T19:37:51.297Z,59.50
2017-11-23T19:40:21.645Z,59.20
2017-11-23T19:42:50.220Z,59.60
2017-11-23T19:45:18.400Z,59.60
2017-11-23T19:47:46.238Z,60.00
2017-11-23T19:50:16.304Z,59.60
2017-11-23T19:52:45.784Z,57.70
2017-11-23T19:55:14.828Z,59.60
2017-11-23T19:57:44.404Z,59.50
2017-11-23T20:00:13.520Z,60.00
2017-11-23T20:02:42.699Z,60.10
2017-11-23T20:05:12.052Z,60.20
2017-11-23T20:07:42.008Z,60.20
2017-11-23T20:10:11.559Z,60.10
2017-11-23T20:12:41.368Z,60.30
2017-11-23T20:15:10.686Z,60.30
2017-11-23T20:17:40.560Z,60.30
2017-11-23T20:20:09.625Z,60.30
2017-11-23T20:22:38.464Z,60.10
2017-11-23T20:25:09.027Z,60.30
2017-11-23T20:27:38.935Z,60.70
2017-11-23T20:30:09.395Z,60.20
2017-11-23T20:32:38.947Z,60.20
2017-11-23T20:35:07.675Z,61.20
2017-11-23T20:37:37.280Z,60.50
2017-11-23T20:40:07.436Z,59.90
2017-11-23T20:42:36.777Z,59.90
2017-11-23T20:45:06.392Z,60.20
2017-11-23T20:47:36.473Z,60.50
2017-11-23T20:50:05.827Z,60.40
2017-11-23T20:52:34.944Z,60.60
2017-11-23T20:55:04.739Z,60.40
2017-11-23T20:57:35.124Z,60.00
2017-11-23T21:00:04.676Z,60.00
2017-11-23T21:02:34.906Z,60.30
2017-11-23T21:05:04.439Z,60.30
2017-11-23T21:07:34.149Z,60.30
2017-11-23T21:10:12.716Z,60.10
2017-11-23T21:12:43.721Z,60.20
2017-11-23T21:15:13.294Z,60.10
2017-11-23T21:17:41.906Z,59.90
2017-11-23T21:20:11.292Z,60.30
2017-11-23T21:22:40.914Z,60.10
2017-11-23T21:25:10.397Z,60.40
2017-11-23T21:27:40.138Z,60.30
2017-11-23T21:30:08.876Z,60.20
2017-11-23T21:32:37.244Z,60.30
2017-11-23T21:35:06.958Z,60.30
2017-11-23T21:37:37.181Z,60.40
2017-11-23T21:40:07.863Z,60.10
2017-11-23T21:42:37.054Z,59.90
2017-11-23T21:45:04.678Z,60.10
2017-11-23T21:47:33.052Z,60.30
2017-11-23T21:50:00.643Z,60.30
2017-11-23T21:52:28.236Z,60.10
2017-11-23T21:54:55.809Z,60.60
2017-11-23T21:57:23.423Z,60.30
2017-11-23T21:59:51.024Z,59.90
2017-11-23T22:02:18.593Z,60.30
2017-11-23T22:04:46.190Z,60.20
2017-11-23T22:07:14.592Z,60.40
2017-11-23T22:09:42.205Z,60.30
2017-11-23T22:12:09.776Z,60.00
2017-11-23T22:14:37.389Z,59.90
2017-11-23T22:17:04.968Z,60.10
2017-11-23T22:19:32.585Z,60.00
2017-11-23T22:22:00.943Z,60.30
2017-11-23T22:24:29.369Z,60.30
2017-11-23T22:26:56.978Z,60.30
2017-11-23T22:29:24.656Z,60.50
2017-11-23T22:31:52.270Z,60.40
2017-11-23T22:34:19.838Z,60.50
2017-11-23T22:36:47.488Z,60.40
2017-11-23T22:39:15.140Z,60.60
2017-11-23T22:41:42.705Z,60.30
2017-11-23T22:44:10.357Z,60.70
2017-11-23T22:46:37.975Z,60.60
2017-11-23T22:49:05.577Z,60.70
2017-11-23T22:51:33.146Z,60.90
2017-11-23T22:54:00.773Z,61.00
2017-11-23T22:56:28.342Z,61.00
2017-11-23T22:58:56.675Z,61.10
2017-11-23T23:01:24.294Z,61.10
2017-11-23T23:03:52.672Z,61.00
2017-11-23T23:06:21.000Z,61.20
2017-11-23T23:08:48.565Z,61.20
2017-11-23T23:11:16.168Z,61.40
2017-11-23T23:13:44.491Z,61.50
2017-11-23T23:16:12.101Z,61.50
2017-11-23T23:18:40.439Z,61.40
2017-11-23T23:21:08.033Z,61.40
2017-11-23T23:23:35.617Z,61.60
2017-11-23T23:26:03.242Z,61.50
2017-11-23T23:28:30.809Z,61.90
2017-11-23T23:30:58.439Z,62.10
2017-11-23T23:33:26.012Z,62.30
2017-11-23T23:35:53.628Z,62.60
2017-11-23T23:38:22.008Z,63.00
2017-11-23T23:40:49.584Z,63.00
2017-11-23T23:43:17.187Z,63.00
2017-11-23T23:45:44.738Z,62.90
2017-11-23T23:48:12.352Z,62.80
2017-11-23T23:50:39.952Z,62.60
2017-11-23T23:53:07.568Z,62.50
2017-11-23T23:55:35.948Z,62.30
2017-11-23T23:58:04.295Z,61.90
